createdAt,value
2023-02-05T00:00:05.231Z,69.99
2023-02-05T00:00:16.276Z,69.99
2023-02-05T00:00:27.246Z,69.99
2023-02-05T00:00:38.022Z,69.99
2023-02-05T00:00:49.082Z,69.99
2023-02-05T00:01:00.109Z,69.99
2023-02-05T00:01:10.862Z,69.99
2023-02-05T00:01:21.908Z,69.99
2023-02-05T00:01:32.895Z,69.99
2023-02-05T00:01:43.666Z,69.99
2023-02-05T00:01:54.735Z,69.99
2023-02-05T00:02:05.680Z,69.99
2023-02-05T00:02:16.449Z,70.09
2023-02-05T00:02:27.502Z,69.99
2023-02-05T00:02:38.448Z,69.99
2023-02-05T00:02:49.223Z,70.09
2023-02-05T00:03:00.345Z,69.99
2023-02-05T00:03:11.339Z,69.99
2023-02-05T00:03:22.135Z,69.99
2023-02-05T00:03:33.244Z,69.89
2023-02-05T00:03:44.236Z,69.99
2023-02-05T00:03:54.937Z,69.89
2023-02-05T00:04:05.997Z,69.99
2023-02-05T00:04:16.962Z,69.99
2023-02-05T00:04:27.736Z,69.99
2023-02-05T00:04:38.791Z,69.99
2023-02-05T00:04:49.789Z,69.99
2023-02-05T00:05:00.574Z,69.99
2023-02-05T00:05:11.608Z,69.99
2023-02-05T00:05:22.568Z,69.99
2023-02-05T00:05:33.719Z,69.99
2023-02-05T00:05:44.355Z,69.99
2023-02-05T00:05:55.324Z,69.99
2023-02-05T00:06:06.098Z,69.89
2023-02-05T00:06:17.145Z,69.89
2023-02-05T00:06:28.132Z,69.89
2023-02-05T00:06:38.910Z,69.89
2023-02-05T00:06:49.964Z,69.89
2023-02-05T00:07:00.930Z,69.89
2023-02-05T00:07:11.694Z,69.89
2023-02-05T00:07:22.739Z,69.89
2023-02-05T00:07:33.716Z,69.92
2023-02-05T00:07:44.471Z,69.92
2023-02-05T00:07:55.519Z,69.89
2023-02-05T00:08:06.484Z,70.02
2023-02-05T00:08:17.250Z,69.99
2023-02-05T00:08:28.297Z,69.99
2023-02-05T00:08:39.260Z,70.12
2023-02-05T00:08:50.023Z,70.09
2023-02-05T00:09:01.086Z,70.23
2023-02-05T00:09:12.050Z,70.20
2023-02-05T00:09:22.826Z,70.30
2023-02-05T00:09:33.856Z,70.33
2023-02-05T00:09:44.823Z,70.33
2023-02-05T00:09:55.623Z,70.30
2023-02-05T00:10:06.136Z,70.33
2023-02-05T00:10:17.125Z,70.33
2023-02-05T00:10:27.876Z,70.30
2023-02-05T00:10:38.928Z,70.33
2023-02-05T00:10:49.891Z,70.43
2023-02-05T00:11:00.665Z,70.43
2023-02-05T00:11:11.719Z,70.43
2023-02-05T00:11:22.685Z,70.43
2023-02-05T00:11:33.486Z,70.43
2023-02-05T00:11:44.002Z,70.43
2023-02-05T00:11:54.964Z,70.43
2023-02-05T00:12:05.727Z,70.33
2023-02-05T00:12:16.778Z,70.33
2023-02-05T00:12:27.757Z,70.23
2023-02-05T00:12:38.533Z,70.23
2023-02-05T00:12:49.573Z,70.23
2023-02-05T00:13:00.555Z,70.23
2023-02-05T00:13:11.310Z,70.23
2023-02-05T00:13:22.357Z,70.12
2023-02-05T00:13:33.320Z,70.23
2023-02-05T00:13:44.087Z,70.23
2023-02-05T00:13:55.144Z,70.23
2023-02-05T00:14:06.116Z,70.23
2023-02-05T00:14:16.884Z,70.23
2023-02-05T00:14:27.931Z,70.33
2023-02-05T00:14:38.897Z,70.33
2023-02-05T00:14:49.670Z,70.33
2023-02-05T00:15:00.713Z,70.33
2023-02-05T00:15:11.674Z,70.43
2023-02-05T00:15:22.439Z,70.43
2023-02-05T00:15:33.800Z,70.54
2023-02-05T00:15:44.373Z,70.54
2023-02-05T00:15:55.139Z,70.54
2023-02-05T00:16:06.185Z,70.54
2023-02-05T00:16:17.243Z,70.54
2023-02-05T00:16:28.028Z,70.54
2023-02-05T00:16:39.098Z,70.54
2023-02-05T00:16:50.091Z,70.54
2023-02-05T00:17:00.845Z,70.54
2023-02-05T00:17:11.922Z,70.54
2023-02-05T00:17:22.892Z,70.54
2023-02-05T00:17:33.654Z,70.54
2023-02-05T00:17:44.706Z,70.54
2023-02-05T00:17:55.671Z,70.43
2023-02-05T00:18:06.442Z,70.43
2023-02-05T00:18:17.489Z,70.23
2023-02-05T00:18:28.456Z,70.23
2023-02-05T00:18:39.219Z,70.02
2023-02-05T00:18:50.265Z,69.92
2023-02-05T00:19:01.233Z,69.92
2023-02-05T00:19:11.998Z,69.81
2023-02-05T00:19:23.054Z,69.81
2023-02-05T00:19:34.018Z,69.71
2023-02-05T00:19:44.801Z,69.71
2023-02-05T00:19:55.846Z,69.71
2023-02-05T00:20:06.819Z,69.71
2023-02-05T00:20:17.586Z,69.60
2023-02-05T00:20:28.655Z,69.60
2023-02-05T00:20:39.626Z,69.60
2023-02-05T00:20:50.366Z,69.50
2023-02-05T00:21:01.414Z,69.50
2023-02-05T00:21:12.387Z,69.50
2023-02-05T00:21:23.166Z,69.50
2023-02-05T00:21:33.706Z,69.50
2023-02-05T00:21:44.672Z,69.50
2023-02-05T00:21:55.444Z,69.50
2023-02-05T00:22:06.489Z,69.50
2023-02-05T00:22:17.519Z,69.50
2023-02-05T00:22:28.260Z,69.60
2023-02-05T00:22:39.306Z,69.60
2023-02-05T00:22:50.284Z,69.60
2023-02-05T00:23:01.047Z,69.60
2023-02-05T00:23:12.096Z,69.60
2023-02-05T00:23:23.063Z,69.71
2023-02-05T00:23:33.835Z,69.60
2023-02-05T00:23:44.873Z,69.60
2023-02-05T00:23:55.842Z,69.71
2023-02-05T00:24:06.612Z,69.74
2023-02-05T00:24:17.651Z,69.74
2023-02-05T00:24:28.618Z,69.84
2023-02-05T00:24:39.383Z,69.84
2023-02-05T00:24:50.451Z,69.95
2023-02-05T00:25:01.437Z,70.02
2023-02-05T00:25:12.203Z,70.05
2023-02-05T00:25:23.252Z,70.15
2023-02-05T00:25:34.665Z,70.15
2023-02-05T00:25:44.938Z,70.26
2023-02-05T00:25:55.980Z,70.26
2023-02-05T00:26:06.982Z,70.26
2023-02-05T00:26:17.738Z,70.23
2023-02-05T00:26:28.794Z,70.26
2023-02-05T00:26:39.769Z,70.26
2023-02-05T00:26:50.576Z,70.26
2023-02-05T00:27:01.090Z,70.26
2023-02-05T00:27:12.065Z,70.26
2023-02-05T00:27:22.823Z,70.23
2023-02-05T00:27:33.871Z,70.26
2023-02-05T00:27:44.852Z,70.36
2023-02-05T00:27:55.626Z,70.36
2023-02-05T00:28:06.726Z,70.36
2023-02-05T00:28:17.700Z,70.36
2023-02-05T00:28:28.499Z,70.36
2023-02-05T00:28:39.559Z,70.36
2023-02-05T00:28:50.522Z,70.36
2023-02-05T00:29:01.284Z,70.36
2023-02-05T00:29:12.340Z,70.26
2023-02-05T00:29:23.297Z,70.26
2023-02-05T00:29:34.063Z,70.26
2023-02-05T00:29:45.107Z,70.26
2023-02-05T00:29:56.076Z,70.26
2023-02-05T00:30:06.849Z,70.26
2023-02-05T00:30:17.902Z,70.15
2023-02-05T00:30:28.920Z,70.15
2023-02-05T00:30:39.772Z,70.15
2023-02-05T00:30:50.478Z,70.15
2023-02-05T00:31:01.025Z,70.15
2023-02-05T00:31:11.893Z,70.26
2023-02-05T00:31:22.498Z,70.26
2023-02-05T00:31:33.084Z,70.26
2023-02-05T00:31:43.943Z,70.36
2023-02-05T00:31:54.499Z,70.26
2023-02-05T00:32:05.504Z,70.36
2023-02-05T00:32:16.261Z,70.36
2023-02-05T00:32:27.302Z,70.36
2023-02-05T00:32:38.281Z,70.36
2023-02-05T00:32:49.040Z,70.47
2023-02-05T00:33:00.119Z,70.47
2023-02-05T00:33:11.053Z,70.57
2023-02-05T00:33:21.813Z,70.57
2023-02-05T00:33:32.861Z,70.57
2023-02-05T00:33:43.827Z,70.57
2023-02-05T00:33:54.594Z,70.57
2023-02-05T00:34:05.644Z,70.57
2023-02-05T00:34:16.610Z,70.57
2023-02-05T00:34:27.377Z,70.57
2023-02-05T00:34:38.422Z,70.57
2023-02-05T00:34:49.388Z,70.57
2023-02-05T00:35:00.192Z,70.47
2023-02-05T00:35:11.224Z,70.47
2023-02-05T00:35:22.193Z,70.47
2023-02-05T00:35:33.312Z,70.47
2023-02-05T00:35:43.947Z,70.47
2023-02-05T00:35:54.891Z,70.47
2023-02-05T00:36:05.668Z,70.47
2023-02-05T00:36:16.700Z,70.47
2023-02-05T00:36:27.671Z,70.47
2023-02-05T00:36:38.449Z,70.57
2023-02-05T00:36:49.504Z,70.57
2023-02-05T00:37:00.475Z,70.57
2023-02-05T00:37:11.251Z,70.68
2023-02-05T00:37:22.320Z,70.68
2023-02-05T00:37:33.281Z,70.78
2023-02-05T00:37:44.084Z,70.78
2023-02-05T00:37:55.124Z,70.78
2023-02-05T00:38:06.092Z,70.78
2023-02-05T00:38:16.877Z,70.78
2023-02-05T00:38:27.911Z,70.78
2023-02-05T00:38:38.893Z,70.78
2023-02-05T00:38:49.689Z,70.78
2023-02-05T00:39:00.708Z,70.78
2023-02-05T00:39:11.678Z,70.68
2023-02-05T00:39:22.453Z,70.68
2023-02-05T00:39:33.482Z,70.68
2023-02-05T00:39:44.481Z,70.68
2023-02-05T00:39:55.229Z,70.68
2023-02-05T00:40:06.274Z,70.68
2023-02-05T00:40:17.250Z,70.68
2023-02-05T00:40:28.002Z,70.68
2023-02-05T00:40:39.048Z,70.57
2023-02-05T00:40:50.015Z,70.57
2023-02-05T00:41:00.829Z,70.57
2023-02-05T00:41:11.830Z,70.57
2023-02-05T00:41:22.803Z,70.57
2023-02-05T00:41:33.563Z,70.57
2023-02-05T00:41:44.625Z,70.57
2023-02-05T00:41:55.629Z,70.61
2023-02-05T00:42:06.402Z,70.68
2023-02-05T00:42:17.460Z,70.68
2023-02-05T00:42:28.428Z,70.78
2023-02-05T00:42:39.192Z,70.78
2023-02-05T00:42:50.237Z,70.78
2023-02-05T00:43:01.280Z,70.78
2023-02-05T00:43:12.058Z,70.78
2023-02-05T00:43:23.106Z,70.78
2023-02-05T00:43:34.076Z,70.89
2023-02-05T00:43:44.837Z,70.99
2023-02-05T00:43:55.902Z,70.99
2023-02-05T00:44:06.860Z,71.09
2023-02-05T00:44:17.629Z,71.09
2023-02-05T00:44:28.667Z,71.20
2023-02-05T00:44:39.638Z,71.20
2023-02-05T00:44:50.410Z,71.30
2023-02-05T00:45:01.495Z,71.30
2023-02-05T00:45:12.475Z,71.41
2023-02-05T00:45:23.295Z,71.41
2023-02-05T00:45:34.700Z,71.41
2023-02-05T00:45:44.991Z,71.51
2023-02-05T00:45:55.832Z,71.51
2023-02-05T00:46:06.353Z,71.51
2023-02-05T00:46:17.345Z,71.51
2023-02-05T00:46:28.183Z,71.41
2023-02-05T00:46:39.170Z,71.41
2023-02-05T00:46:50.152Z,71.41
2023-02-05T00:47:00.916Z,71.41
2023-02-05T00:47:11.957Z,71.41
2023-02-05T00:47:22.943Z,71.30
2023-02-05T00:47:33.704Z,71.30
2023-02-05T00:47:44.746Z,71.30
2023-02-05T00:47:55.713Z,71.30
2023-02-05T00:48:06.476Z,71.30
2023-02-05T00:48:17.522Z,71.30
2023-02-05T00:48:28.522Z,71.20
2023-02-05T00:48:39.298Z,71.20
2023-02-05T00:48:50.333Z,71.20
2023-02-05T00:49:01.322Z,71.20
2023-02-05T00:49:12.075Z,71.09
2023-02-05T00:49:23.120Z,71.09
2023-02-05T00:49:34.090Z,71.09
2023-02-05T00:49:44.864Z,71.09
2023-02-05T00:49:55.922Z,71.09
2023-02-05T00:50:06.877Z,71.20
2023-02-05T00:50:17.643Z,71.20
2023-02-05T00:50:28.691Z,71.20
2023-02-05T00:50:39.658Z,71.30
2023-02-05T00:50:50.487Z,71.30
2023-02-05T00:51:00.997Z,71.30
2023-02-05T00:51:11.966Z,71.30
2023-02-05T00:51:22.706Z,71.41
2023-02-05T00:51:33.754Z,71.41
2023-02-05T00:51:44.718Z,71.41
2023-02-05T00:51:55.506Z,71.41
2023-02-05T00:52:06.547Z,71.51
2023-02-05T00:52:17.572Z,71.51
2023-02-05T00:52:28.404Z,71.51
2023-02-05T00:52:38.912Z,71.51
2023-02-05T00:52:49.862Z,71.51
2023-02-05T00:53:00.630Z,71.51
2023-02-05T00:53:11.676Z,71.51
2023-02-05T00:53:22.640Z,71.51
2023-02-05T00:53:33.400Z,71.61
2023-02-05T00:53:44.452Z,71.61
2023-02-05T00:53:55.454Z,71.61
2023-02-05T00:54:06.234Z,71.61
2023-02-05T00:54:17.283Z,71.61
2023-02-05T00:54:28.248Z,71.61
2023-02-05T00:54:39.016Z,71.61
2023-02-05T00:54:50.063Z,71.61
2023-02-05T00:55:01.039Z,71.61
2023-02-05T00:55:11.793Z,71.61
2023-02-05T00:55:22.842Z,71.61
2023-02-05T00:55:34.120Z,71.61
2023-02-05T00:55:44.417Z,71.61
2023-02-05T00:55:55.463Z,71.72
2023-02-05T00:56:06.521Z,71.72
2023-02-05T00:56:17.499Z,71.72
2023-02-05T00:56:28.242Z,71.72
2023-02-05T00:56:39.255Z,71.72
2023-02-05T00:56:50.022Z,71.72
2023-02-05T00:57:01.085Z,71.72
2023-02-05T00:57:12.047Z,71.72
2023-02-05T00:57:22.824Z,71.61
2023-02-05T00:57:33.875Z,71.72
2023-02-05T00:57:44.838Z,71.61
2023-02-05T00:57:55.619Z,71.61
2023-02-05T00:58:06.658Z,71.61
2023-02-05T00:58:17.627Z,71.61
2023-02-05T00:58:28.443Z,71.51
2023-02-05T00:58:39.469Z,71.51
2023-02-05T00:58:50.438Z,71.41
2023-02-05T00:59:01.198Z,71.41
2023-02-05T00:59:12.247Z,71.41
2023-02-05T00:59:24.041Z,71.41
2023-02-05T00:59:34.230Z,71.41
2023-02-05T00:59:45.282Z,71.30
2023-02-05T00:59:56.246Z,71.30
2023-02-05T01:00:07.010Z,71.30
2023-02-05T01:00:18.058Z,71.20
2023-02-05T01:00:29.023Z,71.20
2023-02-05T01:00:39.786Z,71.20
2023-02-05T01:00:50.834Z,71.20
2023-02-05T01:01:01.972Z,71.20
2023-02-05T01:01:12.770Z,71.20
2023-02-05T01:01:23.835Z,71.20
2023-02-05T01:01:34.785Z,71.20
2023-02-05T01:01:45.644Z,71.20
2023-02-05T01:01:56.085Z,71.20
2023-02-05T01:02:07.064Z,71.20
2023-02-05T01:02:17.849Z,71.20
2023-02-05T01:02:28.921Z,71.20
2023-02-05T01:02:39.917Z,71.20
2023-02-05T01:02:50.768Z,71.20
2023-02-05T01:03:01.325Z,71.20
2023-02-05T01:03:12.309Z,71.20
2023-02-05T01:03:23.063Z,71.20
2023-02-05T01:03:34.147Z,71.20
2023-02-05T01:03:45.103Z,71.20
2023-02-05T01:03:55.852Z,71.30
2023-02-05T01:04:06.905Z,71.30
2023-02-05T01:04:17.870Z,71.30
2023-02-05T01:04:28.643Z,71.30
2023-02-05T01:04:39.688Z,71.30
2023-02-05T01:04:50.659Z,71.30
2023-02-05T01:05:01.425Z,71.30
2023-02-05T01:05:12.468Z,71.20
2023-02-05T01:05:23.435Z,71.20
2023-02-05T01:05:34.525Z,71.20
2023-02-05T01:05:45.210Z,71.20
2023-02-05T01:05:56.189Z,71.20
2023-02-05T01:06:06.944Z,71.20
2023-02-05T01:06:18.009Z,71.20
2023-02-05T01:06:28.990Z,71.30
2023-02-05T01:06:39.787Z,71.30
2023-02-05T01:06:50.850Z,71.30
2023-02-05T01:07:01.838Z,71.41
2023-02-05T01:07:12.596Z,71.41
2023-02-05T01:07:23.644Z,71.41
2023-02-05T01:07:34.610Z,71.41
2023-02-05T01:07:45.383Z,71.41
2023-02-05T01:07:56.430Z,71.41
2023-02-05T01:08:07.398Z,71.41
2023-02-05T01:08:18.163Z,71.41
2023-02-05T01:08:29.225Z,71.41
2023-02-05T01:08:40.184Z,71.41
2023-02-05T01:08:50.947Z,71.41
2023-02-05T01:09:01.993Z,71.41
2023-02-05T01:09:12.963Z,71.41
2023-02-05T01:09:23.728Z,71.41
2023-02-05T01:09:34.778Z,71.41
2023-02-05T01:09:45.745Z,71.41
2023-02-05T01:09:56.518Z,71.41
2023-02-05T01:10:07.573Z,71.41
2023-02-05T01:10:18.571Z,71.41
2023-02-05T01:10:29.344Z,71.30
2023-02-05T01:10:40.385Z,71.30
2023-02-05T01:10:51.354Z,71.30
2023-02-05T01:11:02.122Z,71.30
2023-02-05T01:11:13.170Z,71.30
2023-02-05T01:11:24.144Z,71.30
2023-02-05T01:11:34.900Z,71.30
2023-02-05T01:11:45.955Z,71.30
2023-02-05T01:11:56.927Z,71.30
2023-02-05T01:12:07.700Z,71.30
2023-02-05T01:12:18.756Z,71.30
2023-02-05T01:12:29.725Z,71.30
2023-02-05T01:12:40.489Z,71.30
2023-02-05T01:12:51.548Z,71.30
2023-02-05T01:13:02.517Z,71.30
2023-02-05T01:13:13.284Z,71.30
2023-02-05T01:13:24.331Z,71.41
2023-02-05T01:13:35.299Z,71.41
2023-02-05T01:13:46.073Z,71.41
2023-02-05T01:13:57.131Z,71.41
2023-02-05T01:14:08.096Z,71.41
2023-02-05T01:14:18.865Z,71.41
2023-02-05T01:14:29.912Z,71.41
2023-02-05T01:14:40.894Z,71.30
2023-02-05T01:14:51.662Z,71.30
2023-02-05T01:15:02.712Z,71.30
2023-02-05T01:15:13.676Z,71.30
2023-02-05T01:15:24.441Z,71.30
2023-02-05T01:15:35.955Z,71.30
2023-02-05T01:15:46.152Z,71.41
2023-02-05T01:15:56.955Z,71.41
2023-02-05T01:16:07.996Z,71.41
2023-02-05T01:16:19.002Z,71.51
2023-02-05T01:16:29.713Z,71.51
2023-02-05T01:16:40.858Z,71.51
2023-02-05T01:16:51.340Z,71.51
2023-02-05T01:17:02.120Z,71.51
2023-02-05T01:17:13.154Z,71.51
2023-02-05T01:17:24.136Z,71.51
2023-02-05T01:17:34.912Z,71.51
2023-02-05T01:17:46.048Z,71.51
2023-02-05T01:17:57.004Z,71.51
2023-02-05T01:18:07.772Z,71.51
2023-02-05T01:18:18.821Z,71.51
2023-02-05T01:18:29.792Z,71.51
2023-02-05T01:18:40.569Z,71.51
2023-02-05T01:18:51.605Z,71.51
2023-02-05T01:19:02.601Z,71.51
2023-02-05T01:19:13.384Z,71.51
2023-02-05T01:19:24.461Z,71.51
2023-02-05T01:19:35.415Z,71.51
2023-02-05T01:19:46.182Z,71.51
2023-02-05T01:19:57.224Z,71.51
2023-02-05T01:20:08.201Z,71.51
2023-02-05T01:20:18.957Z,71.51
2023-02-05T01:20:30.002Z,71.51
2023-02-05T01:20:40.979Z,71.51
2023-02-05T01:20:51.735Z,71.51
2023-02-05T01:21:02.796Z,71.51
2023-02-05T01:21:13.756Z,71.51
2023-02-05T01:21:24.518Z,71.51
2023-02-05T01:21:35.572Z,71.51
2023-02-05T01:21:46.536Z,71.51
2023-02-05T01:21:57.336Z,71.51
2023-02-05T01:22:08.366Z,71.41
2023-02-05T01:22:19.343Z,71.51
2023-02-05T01:22:30.113Z,71.51
2023-02-05T01:22:41.158Z,71.41
2023-02-05T01:22:52.141Z,71.41
2023-02-05T01:23:02.910Z,71.41
2023-02-05T01:23:13.957Z,71.41
2023-02-05T01:23:24.929Z,71.41
2023-02-05T01:23:35.685Z,71.30
2023-02-05T01:23:46.736Z,71.30
2023-02-05T01:23:57.704Z,71.20
2023-02-05T01:24:08.465Z,71.20
2023-02-05T01:24:19.516Z,71.20
2023-02-05T01:24:30.479Z,71.20
2023-02-05T01:24:41.249Z,71.20
2023-02-05T01:24:52.291Z,71.20
2023-02-05T01:25:03.255Z,71.20
2023-02-05T01:25:14.027Z,71.20
2023-02-05T01:25:25.084Z,71.20
2023-02-05T01:25:36.241Z,71.20
2023-02-05T01:25:47.020Z,71.20
2023-02-05T01:25:58.071Z,71.09
2023-02-05T01:26:09.045Z,71.09
2023-02-05T01:26:19.801Z,71.09
2023-02-05T01:26:30.853Z,71.20
2023-02-05T01:26:41.821Z,71.30
2023-02-05T01:26:52.597Z,71.30
2023-02-05T01:27:03.642Z,71.30
2023-02-05T01:27:14.611Z,71.41
2023-02-05T01:27:25.455Z,71.41
2023-02-05T01:27:35.961Z,71.41
2023-02-05T01:27:46.963Z,71.41
2023-02-05T01:27:57.711Z,71.41
2023-02-05T01:28:08.807Z,71.30
2023-02-05T01:28:19.750Z,71.30
2023-02-05T01:28:30.535Z,71.30
2023-02-05T01:28:41.563Z,71.30
2023-02-05T01:28:52.533Z,71.30
2023-02-05T01:29:03.324Z,71.30
2023-02-05T01:29:14.341Z,71.41
2023-02-05T01:29:25.319Z,71.41
2023-02-05T01:29:36.087Z,71.41
2023-02-05T01:29:47.131Z,71.51
2023-02-05T01:29:58.099Z,71.51
2023-02-05T01:30:08.875Z,71.51
2023-02-05T01:30:19.936Z,71.51
2023-02-05T01:30:31.017Z,71.51
2023-02-05T01:30:41.904Z,71.51
2023-02-05T01:30:52.576Z,71.41
2023-02-05T01:31:03.161Z,71.30
2023-02-05T01:31:14.024Z,71.30
2023-02-05T01:31:24.621Z,71.20
2023-02-05T01:31:35.196Z,71.20
2023-02-05T01:31:46.053Z,71.20
2023-02-05T01:31:56.583Z,71.20
2023-02-05T01:32:07.544Z,71.20
2023-02-05T01:32:18.334Z,71.20
2023-02-05T01:32:29.382Z,71.09
2023-02-05T01:32:40.349Z,71.09
2023-02-05T01:32:51.135Z,70.99
2023-02-05T01:33:02.194Z,70.99
2023-02-05T01:33:13.150Z,70.89
2023-02-05T01:33:23.917Z,70.89
2023-02-05T01:33:34.964Z,70.89
2023-02-05T01:33:45.939Z,70.78
2023-02-05T01:33:56.721Z,70.78
2023-02-05T01:34:07.751Z,70.68
2023-02-05T01:34:18.720Z,70.68
2023-02-05T01:34:29.487Z,70.68
2023-02-05T01:34:40.534Z,70.68
2023-02-05T01:34:51.513Z,70.68
2023-02-05T01:35:02.286Z,70.71
2023-02-05T01:35:13.326Z,70.68
2023-02-05T01:35:24.290Z,70.68
2023-02-05T01:35:35.481Z,70.68
2023-02-05T01:35:46.057Z,70.68
2023-02-05T01:35:57.025Z,70.68
2023-02-05T01:36:07.815Z,70.68
2023-02-05T01:36:18.838Z,70.68
2023-02-05T01:36:29.800Z,70.68
2023-02-05T01:36:40.572Z,70.68
2023-02-05T01:36:51.626Z,70.68
2023-02-05T01:37:02.591Z,70.68
2023-02-05T01:37:13.364Z,70.68
2023-02-05T01:37:24.401Z,70.78
2023-02-05T01:37:35.383Z,70.78
2023-02-05T01:37:46.149Z,70.78
2023-02-05T01:37:57.194Z,70.78
2023-02-05T01:38:08.172Z,70.78
2023-02-05T01:38:18.938Z,70.78
2023-02-05T01:38:29.984Z,70.78
2023-02-05T01:38:40.946Z,70.78
2023-02-05T01:38:51.710Z,70.68
2023-02-05T01:39:02.758Z,70.71
2023-02-05T01:39:13.734Z,70.68
2023-02-05T01:39:24.498Z,70.68
2023-02-05T01:39:35.544Z,70.71
2023-02-05T01:39:46.523Z,70.71
2023-02-05T01:39:57.294Z,70.71
2023-02-05T01:40:08.348Z,70.71
2023-02-05T01:40:19.334Z,70.71
2023-02-05T01:40:30.076Z,70.81
2023-02-05T01:40:41.125Z,70.81
2023-02-05T01:40:52.094Z,70.81
2023-02-05T01:41:02.865Z,70.81
2023-02-05T01:41:13.917Z,70.78
2023-02-05T01:41:24.882Z,70.81
2023-02-05T01:41:35.648Z,70.92
2023-02-05T01:41:46.690Z,70.92
2023-02-05T01:41:57.657Z,70.92
2023-02-05T01:42:08.421Z,70.92
2023-02-05T01:42:19.481Z,70.92
2023-02-05T01:42:30.438Z,70.92
2023-02-05T01:42:41.217Z,71.02
2023-02-05T01:42:52.277Z,71.02
2023-02-05T01:43:03.237Z,71.02
2023-02-05T01:43:14.025Z,71.12
2023-02-05T01:43:25.060Z,71.12
2023-02-05T01:43:36.036Z,71.12
2023-02-05T01:43:46.804Z,71.12
2023-02-05T01:43:57.847Z,71.23
2023-02-05T01:44:08.814Z,71.23
2023-02-05T01:44:19.581Z,71.23
2023-02-05T01:44:30.634Z,71.23
2023-02-05T01:44:41.594Z,71.33
2023-02-05T01:44:52.355Z,71.33
2023-02-05T01:45:03.408Z,71.33
2023-02-05T01:45:14.370Z,71.44
2023-02-05T01:45:25.165Z,71.44
2023-02-05T01:45:36.482Z,71.44
2023-02-05T01:45:46.932Z,71.54
2023-02-05T01:45:57.701Z,71.54
2023-02-05T01:46:08.787Z,71.65
2023-02-05T01:46:19.752Z,71.65
2023-02-05T01:46:30.553Z,71.65
2023-02-05T01:46:41.657Z,71.75
2023-02-05T01:46:52.112Z,71.75
2023-02-05T01:47:02.887Z,71.75
2023-02-05T01:47:13.921Z,71.75
2023-02-05T01:47:24.885Z,71.86
2023-02-05T01:47:35.657Z,71.86
2023-02-05T01:47:46.713Z,71.86
2023-02-05T01:47:57.699Z,71.86
2023-02-05T01:48:08.477Z,71.86
2023-02-05T01:48:19.508Z,71.86
2023-02-05T01:48:30.475Z,71.86
2023-02-05T01:48:41.247Z,71.86
2023-02-05T01:48:52.287Z,71.86
2023-02-05T01:49:03.265Z,71.86
2023-02-05T01:49:14.032Z,71.86
2023-02-05T01:49:25.104Z,71.86
2023-02-05T01:49:36.039Z,71.96
2023-02-05T01:49:46.809Z,71.96
2023-02-05T01:49:57.849Z,71.96
2023-02-05T01:50:08.817Z,71.96
2023-02-05T01:50:19.600Z,71.96
2023-02-05T01:50:30.655Z,71.96
2023-02-05T01:50:41.629Z,71.96
2023-02-05T01:50:52.393Z,71.96
2023-02-05T01:51:03.431Z,72.06
2023-02-05T01:51:14.419Z,72.06
2023-02-05T01:51:25.188Z,71.96
2023-02-05T01:51:36.230Z,72.06
2023-02-05T01:51:47.205Z,72.06
2023-02-05T01:51:57.965Z,72.06
2023-02-05T01:52:09.014Z,72.06
2023-02-05T01:52:19.980Z,72.06
2023-02-05T01:52:30.751Z,72.06
2023-02-05T01:52:41.799Z,72.06
2023-02-05T01:52:52.772Z,72.06
2023-02-05T01:53:03.548Z,72.06
2023-02-05T01:53:14.586Z,72.06
2023-02-05T01:53:25.565Z,72.06
2023-02-05T01:53:36.365Z,72.03
2023-02-05T01:53:47.389Z,72.06
2023-02-05T01:53:58.351Z,72.06
2023-02-05T01:54:09.115Z,72.06
2023-02-05T01:54:20.166Z,71.96
2023-02-05T01:54:31.153Z,71.96
2023-02-05T01:54:41.918Z,71.82
2023-02-05T01:54:52.962Z,71.86
2023-02-05T01:55:03.932Z,71.75
2023-02-05T01:55:14.706Z,71.86
2023-02-05T01:55:25.742Z,71.75
2023-02-05T01:55:36.711Z,71.75
2023-02-05T01:55:47.473Z,71.75
2023-02-05T01:55:58.526Z,71.75
2023-02-05T01:56:09.505Z,71.75
2023-02-05T01:56:20.256Z,71.75
2023-02-05T01:56:31.302Z,71.86
2023-02-05T01:56:42.274Z,71.86
2023-02-05T01:56:53.032Z,71.75
2023-02-05T01:57:04.106Z,71.75
2023-02-05T01:57:15.054Z,71.75
2023-02-05T01:57:25.817Z,71.75
2023-02-05T01:57:36.873Z,71.65
2023-02-05T01:57:47.858Z,71.65
2023-02-05T01:57:58.627Z,71.65
2023-02-05T01:58:09.677Z,71.65
2023-02-05T01:58:20.640Z,71.54
2023-02-05T01:58:31.415Z,71.54
2023-02-05T01:58:42.468Z,71.54
2023-02-05T01:58:53.437Z,71.54
2023-02-05T01:59:04.206Z,71.54
2023-02-05T01:59:15.259Z,71.54
2023-02-05T01:59:26.223Z,71.54
2023-02-05T01:59:36.988Z,71.54
2023-02-05T01:59:48.031Z,71.54
2023-02-05T01:59:59.002Z,71.54
2023-02-05T02:00:09.766Z,71.65
2023-02-05T02:00:20.810Z,71.65
2023-02-05T02:00:31.776Z,71.65
2023-02-05T02:00:42.545Z,71.65
2023-02-05T02:00:53.586Z,71.65
2023-02-05T02:01:04.575Z,71.75
2023-02-05T02:01:15.411Z,71.75
2023-02-05T02:01:25.889Z,71.75
2023-02-05T02:01:36.915Z,71.75
2023-02-05T02:01:47.653Z,71.86
2023-02-05T02:01:58.267Z,71.86
2023-02-05T02:02:09.196Z,71.86
2023-02-05T02:02:19.959Z,71.86
2023-02-05T02:02:31.013Z,71.86
2023-02-05T02:02:41.974Z,71.75
2023-02-05T02:02:52.742Z,71.75
2023-02-05T02:03:03.801Z,71.75
2023-02-05T02:03:14.780Z,71.75
2023-02-05T02:03:25.532Z,71.75
2023-02-05T02:03:36.590Z,71.75
2023-02-05T02:03:47.556Z,71.65
2023-02-05T02:03:58.323Z,71.65
2023-02-05T02:04:09.373Z,71.75
2023-02-05T02:04:20.351Z,71.75
2023-02-05T02:04:31.112Z,71.75
2023-02-05T02:04:42.213Z,71.75
2023-02-05T02:04:53.184Z,71.75
2023-02-05T02:05:03.930Z,71.75
2023-02-05T02:05:14.998Z,71.86
2023-02-05T02:05:26.013Z,71.86
2023-02-05T02:05:36.741Z,71.86
2023-02-05T02:05:47.798Z,71.86
2023-02-05T02:05:58.760Z,71.75
2023-02-05T02:06:09.526Z,71.75
2023-02-05T02:06:20.594Z,71.65
2023-02-05T02:06:31.542Z,71.65
2023-02-05T02:06:42.304Z,71.54
2023-02-05T02:06:53.349Z,71.54
2023-02-05T02:07:04.320Z,71.44
2023-02-05T02:07:15.092Z,71.44
2023-02-05T02:07:26.136Z,71.44
2023-02-05T02:07:37.113Z,71.44
2023-02-05T02:07:47.880Z,71.44
2023-02-05T02:07:58.927Z,71.33
2023-02-05T02:08:09.904Z,71.33
2023-02-05T02:08:20.679Z,71.33
2023-02-05T02:08:31.739Z,71.33
2023-02-05T02:08:42.726Z,71.33
2023-02-05T02:08:53.519Z,71.33
2023-02-05T02:09:04.562Z,71.33
2023-02-05T02:09:15.519Z,71.33
2023-02-05T02:09:26.274Z,71.33
2023-02-05T02:09:37.324Z,71.33
2023-02-05T02:09:48.290Z,71.33
2023-02-05T02:09:59.063Z,71.33
2023-02-05T02:10:09.735Z,71.23
2023-02-05T02:10:20.697Z,71.23
2023-02-05T02:10:31.463Z,71.23
2023-02-05T02:10:42.511Z,71.23
2023-02-05T02:10:53.476Z,71.23
2023-02-05T02:11:04.238Z,71.23
2023-02-05T02:11:15.289Z,71.23
2023-02-05T02:11:26.253Z,71.23
2023-02-05T02:11:37.043Z,71.23
2023-02-05T02:11:48.064Z,71.33
2023-02-05T02:11:59.032Z,71.33
2023-02-05T02:12:09.796Z,71.33
2023-02-05T02:12:20.847Z,71.44
2023-02-05T02:12:31.816Z,71.44
2023-02-05T02:12:42.577Z,71.44
2023-02-05T02:12:53.621Z,71.44
2023-02-05T02:13:04.592Z,71.44
2023-02-05T02:13:15.366Z,71.44
2023-02-05T02:13:26.411Z,71.44
2023-02-05T02:13:37.377Z,71.44
2023-02-05T02:13:48.295Z,71.44
2023-02-05T02:13:58.801Z,71.44
2023-02-05T02:14:09.765Z,71.44
2023-02-05T02:14:20.530Z,71.44
2023-02-05T02:14:31.580Z,71.44
2023-02-05T02:14:42.548Z,71.44
2023-02-05T02:14:53.317Z,71.54
2023-02-05T02:15:04.370Z,71.44
2023-02-05T02:15:15.337Z,71.54
2023-02-05T02:15:26.109Z,71.54
2023-02-05T02:15:37.146Z,71.54
2023-02-05T02:15:48.136Z,71.65
2023-02-05T02:15:58.932Z,71.75
2023-02-05T02:16:10.036Z,71.75
2023-02-05T02:16:20.985Z,71.86
2023-02-05T02:16:31.752Z,71.86
2023-02-05T02:16:42.803Z,71.96
2023-02-05T02:16:53.762Z,71.96
2023-02-05T02:17:04.531Z,71.96
2023-02-05T02:17:15.582Z,72.06
2023-02-05T02:17:26.548Z,72.06
2023-02-05T02:17:37.307Z,72.09
2023-02-05T02:17:48.364Z,72.09
2023-02-05T02:17:59.321Z,72.20
2023-02-05T02:18:10.090Z,72.17
2023-02-05T02:18:21.166Z,72.17
2023-02-05T02:18:32.112Z,72.17
2023-02-05T02:18:42.882Z,72.27
2023-02-05T02:18:53.948Z,72.30
2023-02-05T02:19:04.928Z,72.27
2023-02-05T02:19:15.681Z,72.27
2023-02-05T02:19:26.728Z,72.38
2023-02-05T02:19:37.695Z,72.38
2023-02-05T02:19:48.457Z,72.38
2023-02-05T02:19:59.510Z,72.41
2023-02-05T02:20:10.474Z,72.48
2023-02-05T02:20:21.243Z,72.48
2023-02-05T02:20:32.284Z,72.48